Time;durP1;ratioP1;P1;durP2;ratioP2;P2;SDS_P1;SDS_P2;PMS_P1;PMS_P2;Temp;Humidity;BMP_temperature;BMP_pressure;BME280_temperature;BME280_humidity;BME280_pressure;Samples;Min_cycle;Max_cycle;Signal;HPM_P1;HPM_P2
2023/06/04 00:02:01;;;;;;;2.57;2.30;;;9.60;92.60;;;;;;5004703;28;20297;-79
2023/06/04 00:04:28;;;;;;;5.37;3.03;;;9.60;93.10;;;;;;5005779;28;20233;-80
2023/06/04 00:06:55;;;;;;;2.83;2.50;;;9.60;93.40;;;;;;5006576;28;20224;-80
2023/06/04 00:09:22;;;;;;;3.43;2.50;;;9.60;93.80;;;;;;5005755;28;20279;-79
2023/06/04 00:11:50;;;;;;;4.53;3.07;;;9.60;94.10;;;;;;5006385;28;20636;-80
2023/06/04 00:14:17;;;;;;;4.00;2.60;;;9.50;94.60;;;;;;5003466;28;20309;-79
2023/06/04 00:16:44;;;;;;;2.23;1.93;;;9.50;94.40;;;;;;5037638;28;20974;-78
2023/06/04 00:19:10;;;;;;;2.97;2.30;;;9.50;94.50;;;;;;5005398;28;20287;-79
2023/06/04 00:21:37;;;;;;;5.33;2.57;;;9.50;94.80;;;;;;5021158;28;20229;-79
2023/06/04 00:24:04;;;;;;;2.50;2.00;;;9.40;95.30;;;;;;5003889;28;20233;-79
2023/06/04 00:26:31;;;;;;;2.67;2.13;;;9.40;95.70;;;;;;5004711;28;20221;-81
2023/06/04 00:28:59;;;;;;;2.47;2.00;;;9.40;95.70;;;;;;5003520;28;20226;-82
2023/06/04 00:31:26;;;;;;;3.03;2.00;;;9.40;95.80;;;;;;5003983;28;20225;-79
2023/06/04 00:33:52;;;;;;;3.63;2.20;;;9.40;95.60;;;;;;5001874;28;20328;-82
2023/06/04 00:36:19;;;;;;;3.13;2.07;;;9.40;96.00;;;;;;5038092;28;20435;-79
2023/06/04 00:38:47;;;;;;;2.77;2.00;;;9.40;96.20;;;;;;5003638;28;20533;-79
2023/06/04 00:41:14;;;;;;;2.40;1.87;;;9.30;96.40;;;;;;5014793;28;20295;-80
2023/06/04 00:43:45;;;;;;;3.00;2.10;;;9.30;96.40;;;;;;5035521;28;20310;-79
2023/06/04 00:46:18;;;;;;;2.80;2.00;;;9.30;96.40;;;;;;5003494;28;20229;-79
2023/06/04 00:48:45;;;;;;;2.97;1.90;;;9.30;96.70;;;;;;5036989;28;20213;-79
2023/06/04 00:51:12;;;;;;;3.03;1.70;;;9.30;97.20;;;;;;5003512;28;20240;-79
2023/06/04 00:53:39;;;;;;;2.17;1.90;;;9.20;97.10;;;;;;5003474;28;20311;-79
2023/06/04 00:56:07;;;;;;;4.73;2.07;;;9.20;96.70;;;;;;5000733;28;20722;-81
2023/06/04 00:58:38;;;;;;;3.07;1.90;;;9.10;96.50;;;;;;5034839;28;20594;-80
2023/06/04 01:01:11;;;;;;;3.00;2.23;;;9.10;96.70;;;;;;5001467;28;20785;-79
2023/06/04 01:03:43;;;;;;;2.20;1.80;;;9.00;96.80;;;;;;5017248;28;20240;-79
2023/06/04 01:06:21;;;;;;;4.10;2.10;;;8.90;96.70;;;;;;5017424;28;20595;-79
2023/06/04 01:08:54;;;;;;;2.73;1.87;;;8.80;97.10;;;;;;5031433;28;20502;-79
2023/06/04 01:11:32;;;;;;;4.83;2.17;;;8.90;97.10;;;;;;5023394;28;20317;-80
2023/06/04 01:13:59;;;;;;;2.43;1.87;;;8.70;97.70;;;;;;5002933;28;20316;-80
2023/06/04 01:16:28;;;;;;;4.83;2.13;;;8.70;97.30;;;;;;5012360;28;20221;-79
2023/06/04 01:19:02;;;;;;;2.17;1.97;;;8.70;97.80;;;;;;5039172;28;20734;-79
2023/06/04 01:21:35;;;;;;;4.27;2.20;;;8.60;98.00;;;;;;5037800;28;20313;-79
2023/06/04 01:24:06;;;;;;;2.63;1.87;;;8.60;98.00;;;;;;5011025;28;20937;-79
2023/06/04 01:26:35;;;;;;;2.23;1.90;;;8.60;98.10;;;;;;5012236;28;20703;-79
2023/06/04 01:29:02;;;;;;;3.57;2.03;;;8.60;98.20;;;;;;5000544;28;20240;-79
2023/06/04 01:31:32;;;;;;;3.70;1.90;;;8.60;98.20;;;;;;5001768;28;20232;-79
2023/06/04 01:34:01;;;;;;;2.33;2.03;;;8.60;98.40;;;;;;5037959;28;20726;-79
2023/06/04 01:36:28;;;;;;;2.83;1.80;;;8.60;98.70;;;;;;5037804;28;20733;-80
2023/06/04 01:38:55;;;;;;;4.00;2.00;;;8.50;98.50;;;;;;5009990;28;20249;-79
2023/06/04 01:41:22;;;;;;;2.57;2.10;;;8.50;98.60;;;;;;5025607;28;20319;-79
2023/06/04 01:43:49;;;;;;;3.00;2.23;;;8.50;98.70;;;;;;5010200;28;20228;-82
2023/06/04 01:46:15;;;;;;;3.27;2.10;;;8.50;98.80;;;;;;5008638;28;20229;-78
2023/06/04 01:48:42;;;;;;;3.37;2.17;;;8.50;98.90;;;;;;5019353;28;20229;-78
2023/06/04 01:51:10;;;;;;;3.63;2.03;;;8.50;99.10;;;;;;5038475;28;20651;-79
2023/06/04 01:53:37;;;;;;;2.73;1.73;;;8.40;99.40;;;;;;5022257;28;20256;-80
2023/06/04 01:56:04;;;;;;;3.13;1.90;;;8.40;99.10;;;;;;5023559;28;20237;-78
2023/06/04 01:58:31;;;;;;;3.30;2.07;;;8.40;99.20;;;;;;5019493;28;20307;-80
2023/06/04 02:01:00;;;;;;;2.23;1.90;;;8.40;99.40;;;;;;5026468;28;20229;-78
2023/06/04 02:03:27;;;;;;;2.47;1.83;;;8.40;99.50;;;;;;4999648;28;20233;-79
2023/06/04 02:05:54;;;;;;;3.83;2.10;;;8.30;99.60;;;;;;5002258;28;20893;-79
2023/06/04 02:08:25;;;;;;;4.37;2.10;;;8.30;99.70;;;;;;5012776;28;20303;-80
2023/06/04 02:10:53;;;;;;;4.20;2.20;;;8.20;99.90;;;;;;5005229;28;20886;-79
2023/06/04 02:13:20;;;;;;;5.23;2.37;;;8.20;99.90;;;;;;4968993;28;20288;-80
2023/06/04 02:15:47;;;;;;;4.13;1.90;;;8.20;99.80;;;;;;5035469;28;20249;-80
2023/06/04 02:18:16;;;;;;;4.67;2.13;;;8.10;99.70;;;;;;5011907;28;20307;-79
2023/06/04 02:20:44;;;;;;;1.97;1.77;;;8.10;99.90;;;;;;5019023;28;20287;-79
2023/06/04 02:23:11;;;;;;;2.87;2.10;;;8.10;99.90;;;;;;5002538;28;20292;-78
2023/06/04 02:25:39;;;;;;;4.33;2.50;;;8.00;99.80;;;;;;5004871;28;20295;-78
2023/06/04 02:28:07;;;;;;;2.10;1.83;;;8.00;99.90;;;;;;5018065;28;20221;-79
2023/06/04 02:30:36;;;;;;;2.60;2.00;;;8.00;99.80;;;;;;5003582;28;20229;-79
2023/06/04 02:33:03;;;;;;;3.10;1.97;;;8.00;99.70;;;;;;5001824;28;20320;-80
2023/06/04 02:35:31;;;;;;;3.40;2.10;;;8.00;99.80;;;;;;5004832;28;20221;-78
2023/06/04 02:37:59;;;;;;;3.53;2.50;;;7.90;99.90;;;;;;5004647;28;20228;-79
2023/06/04 02:40:27;;;;;;;3.30;2.30;;;7.90;99.90;;;;;;5003231;28;20234;-79
2023/06/04 02:42:56;;;;;;;3.17;2.27;;;7.90;99.90;;;;;;5034659;28;20732;-78
2023/06/04 02:45:23;;;;;;;2.63;1.90;;;7.90;99.90;;;;;;5017512;28;20229;-80
2023/06/04 02:47:50;;;;;;;3.13;2.30;;;7.90;99.90;;;;;;5003069;28;20224;-79
2023/06/04 02:50:18;;;;;;;3.60;2.13;;;7.90;99.90;;;;;;5009133;28;20224;-79
2023/06/04 02:52:45;;;;;;;4.37;2.30;;;7.80;99.90;;;;;;5002400;28;20315;-78
2023/06/04 02:55:12;;;;;;;2.57;2.10;;;7.80;99.90;;;;;;5002413;28;20241;-81
2023/06/04 02:57:41;;;;;;;3.00;1.80;;;7.80;99.90;;;;;;5010085;28;20237;-79
2023/06/04 03:00:12;;;;;;;4.33;2.20;;;7.80;99.90;;;;;;5044037;28;20316;-79
2023/06/04 03:02:41;;;;;;;3.07;2.23;;;7.80;99.90;;;;;;5040997;28;20225;-79
2023/06/04 03:05:12;;;;;;;2.03;1.80;;;7.80;99.90;;;;;;5028546;28;20356;-79
2023/06/04 03:07:40;;;;;;;2.77;2.00;;;7.70;99.90;;;;;;5025159;28;20631;-79
2023/06/04 03:10:09;;;;;;;3.17;2.30;;;7.70;99.90;;;;;;5007514;28;20225;-79
2023/06/04 03:12:36;;;;;;;3.17;2.47;;;7.70;99.90;;;;;;5006412;28;20225;-80
2023/06/04 03:15:03;;;;;;;3.60;2.13;;;7.70;99.90;;;;;;5003307;28;20718;-82
2023/06/04 03:17:31;;;;;;;3.50;2.03;;;7.70;99.90;;;;;;5009176;28;20879;-79
2023/06/04 03:19:58;;;;;;;3.13;2.17;;;7.60;99.90;;;;;;5022955;28;20257;-80
2023/06/04 03:22:25;;;;;;;3.13;2.00;;;7.60;99.90;;;;;;5023628;28;20233;-81
2023/06/04 03:24:53;;;;;;;3.40;2.43;;;7.60;99.90;;;;;;5005328;28;20276;-80
2023/06/04 03:27:20;;;;;;;2.07;1.80;;;7.60;99.90;;;;;;5020445;28;20283;-79
2023/06/04 03:29:47;;;;;;;2.93;2.07;;;7.50;99.90;;;;;;5006936;28;20236;-81
2023/06/04 03:32:16;;;;;;;2.73;2.23;;;7.60;99.90;;;;;;5025415;28;20255;-78
2023/06/04 03:34:45;;;;;;;3.63;2.33;;;7.50;99.90;;;;;;5041075;28;20648;-80
2023/06/04 03:37:12;;;;;;;3.43;2.03;;;7.50;99.90;;;;;;5009923;28;20221;-80
2023/06/04 03:39:39;;;;;;;2.57;2.17;;;7.50;99.90;;;;;;5010466;28;20236;-79
2023/06/04 03:42:09;;;;;;;3.43;2.17;;;7.60;99.90;;;;;;5041742;28;20249;-82
2023/06/04 03:44:36;;;;;;;3.40;2.20;;;7.60;99.90;;;;;;5014397;28;20229;-81
2023/06/04 03:47:04;;;;;;;3.70;2.00;;;7.60;99.90;;;;;;5041512;28;20228;-81
2023/06/04 03:49:31;;;;;;;3.83;2.13;;;7.60;99.90;;;;;;5023246;28;20256;-80
2023/06/04 03:51:59;;;;;;;3.73;2.37;;;7.70;99.90;;;;;;5025327;28;20225;-81
2023/06/04 03:54:26;;;;;;;2.60;1.93;;;7.70;99.90;;;;;;5034441;28;20311;-82
2023/06/04 03:56:53;;;;;;;2.50;1.90;;;7.70;99.90;;;;;;5044158;28;20233;-80
2023/06/04 03:59:19;;;;;;;3.70;2.00;;;7.80;99.90;;;;;;5043355;28;20982;-80
2023/06/04 04:01:47;;;;;;;2.47;1.70;;;7.80;99.90;;;;;;5042394;28;20223;-81
2023/06/04 04:04:14;;;;;;;3.43;2.10;;;7.90;99.90;;;;;;5010037;28;20244;-80
2023/06/04 04:06:41;;;;;;;2.23;1.93;;;7.90;99.90;;;;;;5041649;28;20582;-80
2023/06/04 04:09:09;;;;;;;3.50;1.90;;;7.90;99.90;;;;;;5008659;28;20225;-81
2023/06/04 04:11:37;;;;;;;2.63;1.97;;;8.00;99.90;;;;;;5022386;28;20245;-80
2023/06/04 04:14:04;;;;;;;3.00;1.70;;;8.00;99.90;;;;;;5010667;28;20256;-82
2023/06/04 04:16:32;;;;;;;2.50;1.90;;;8.10;99.90;;;;;;5023533;28;20224;-82
2023/06/04 04:18:59;;;;;;;4.23;2.20;;;8.10;99.90;;;;;;5022278;28;20236;-84
2023/06/04 04:21:26;;;;;;;3.37;1.87;;;8.10;99.90;;;;;;5009096;28;20360;-80
2023/06/04 04:23:54;;;;;;;3.57;1.97;;;8.20;99.90;;;;;;5024485;28;20229;-80
2023/06/04 04:26:23;;;;;;;2.10;1.90;;;8.30;99.90;;;;;;5024376;28;20249;-80
2023/06/04 04:28:57;;;;;;;2.10;1.80;;;8.30;99.90;;;;;;5005383;28;20245;-81
2023/06/04 04:31:25;;;;;;;4.43;2.20;;;8.40;99.90;;;;;;5009406;28;20699;-79
2023/06/04 04:33:53;;;;;;;4.13;2.10;;;8.50;99.90;;;;;;5040782;28;20299;-80
2023/06/04 04:36:20;;;;;;;2.93;1.90;;;8.50;99.90;;;;;;5040622;28;20229;-80
2023/06/04 04:38:54;;;;;;;3.33;2.00;;;8.60;99.90;;;;;;5041778;28;20304;-80
2023/06/04 04:41:25;;;;;;;3.80;2.33;;;8.60;99.90;;;;;;5024139;28;20304;-79
2023/06/04 04:43:54;;;;;;;3.13;1.97;;;8.70;99.90;;;;;;5047200;28;20229;-80
2023/06/04 04:46:28;;;;;;;2.73;1.90;;;8.80;99.90;;;;;;5049299;28;20330;-83
2023/06/04 04:48:55;;;;;;;2.33;1.80;;;8.80;99.90;;;;;;5007485;28;20250;-81
2023/06/04 04:51:22;;;;;;;2.63;2.27;;;8.90;99.90;;;;;;5028807;28;20253;-79
2023/06/04 04:53:50;;;;;;;3.00;1.80;;;8.90;99.90;;;;;;5023306;28;20356;-80
2023/06/04 04:56:17;;;;;;;2.77;1.87;;;9.00;99.90;;;;;;5044390;28;20221;-81
2023/06/04 04:58:49;;;;;;;4.53;2.07;;;9.10;99.90;;;;;;5040047;28;20284;-79
2023/06/04 05:01:16;;;;;;;2.93;2.00;;;9.10;99.90;;;;;;5009865;28;20297;-80
2023/06/04 05:03:43;;;;;;;4.27;1.97;;;9.20;99.90;;;;;;5020835;28;20317;-80
2023/06/04 05:06:13;;;;;;;3.43;2.00;;;9.30;99.90;;;;;;5016767;28;20217;-86
2023/06/04 05:08:40;;;;;;;4.60;2.00;;;9.30;99.90;;;;;;5011655;28;20383;-82
2023/06/04 05:11:07;;;;;;;4.53;2.10;;;9.40;99.90;;;;;;5007544;28;20225;-80
2023/06/04 05:13:34;;;;;;;5.90;2.10;;;9.40;99.90;;;;;;5039921;28;20318;-82
2023/06/04 05:16:06;;;;;;;3.40;1.90;;;9.50;99.90;;;;;;5028147;28;20229;-80
2023/06/04 05:18:34;;;;;;;5.27;2.40;;;9.60;99.90;;;;;;5040592;28;20279;-84
2023/06/04 05:21:03;;;;;;;3.07;1.90;;;9.60;99.90;;;;;;5007999;28;20233;-82
2023/06/04 05:23:34;;;;;;;4.93;2.17;;;9.70;99.90;;;;;;5030786;28;20232;-81
2023/06/04 05:26:03;;;;;;;4.20;2.17;;;9.80;99.90;;;;;;5042804;28;20224;-79
2023/06/04 05:28:32;;;;;;;5.33;2.40;;;9.80;99.90;;;;;;5009258;28;20221;-79
2023/06/04 05:31:00;;;;;;;6.37;2.33;;;9.90;99.90;;;;;;5040229;28;20293;-79
2023/06/04 05:33:32;;;;;;;6.87;2.20;;;10.00;99.90;;;;;;5024872;28;20227;-79
2023/06/04 05:36:03;;;;;;;4.33;2.03;;;10.10;99.90;;;;;;5040430;28;20890;-85
2023/06/04 05:38:35;;;;;;;5.93;2.40;;;10.20;99.90;;;;;;5027197;28;20231;-81
2023/06/04 05:41:06;;;;;;;3.83;2.23;;;10.20;99.90;;;;;;5023681;28;20227;-80
2023/06/04 05:43:36;;;;;;;5.93;2.30;;;10.30;99.90;;;;;;5024626;28;20231;-80
2023/06/04 05:46:03;;;;;;;4.50;2.20;;;10.40;99.90;;;;;;5007929;28;20224;-82
2023/06/04 05:48:31;;;;;;;5.63;2.33;;;10.50;99.90;;;;;;5010843;28;20217;-83
2023/06/04 05:50:58;;;;;;;4.83;2.40;;;10.60;99.90;;;;;;5041862;28;21016;-79
2023/06/04 05:53:25;;;;;;;5.13;2.47;;;10.60;99.90;;;;;;5007544;28;20221;-79
2023/06/04 05:55:52;;;;;;;3.27;2.13;;;10.80;99.90;;;;;;5037249;28;20228;-79
2023/06/04 05:58:19;;;;;;;4.03;2.13;;;10.80;99.90;;;;;;5011145;28;20253;-80
2023/06/04 06:00:46;;;;;;;5.93;2.40;;;10.90;99.90;;;;;;5034897;28;20232;-88
2023/06/04 06:03:16;;;;;;;5.80;2.30;;;11.00;99.90;;;;;;5010627;28;20232;-79
2023/06/04 06:05:47;;;;;;;5.37;2.47;;;11.00;99.90;;;;;;5021733;28;20260;-79
2023/06/04 06:08:15;;;;;;;5.00;2.10;;;11.10;99.90;;;;;;5041324;28;20282;-80
2023/06/04 06:10:42;;;;;;;5.67;2.40;;;11.10;99.90;;;;;;5022831;28;20242;-79
2023/06/04 06:13:09;;;;;;;4.10;2.00;;;11.20;99.90;;;;;;5007637;28;20232;-79
2023/06/04 06:15:35;;;;;;;6.87;3.13;;;11.30;99.90;;;;;;5008683;28;20221;-79
2023/06/04 06:18:02;;;;;;;5.67;2.47;;;11.40;99.90;;;;;;5005737;28;20906;-80
2023/06/04 06:20:29;;;;;;;4.60;2.03;;;11.40;99.90;;;;;;5026315;28;20227;-80
2023/06/04 06:22:57;;;;;;;4.80;3.40;;;11.50;99.90;;;;;;5040207;28;20254;-80
2023/06/04 06:25:24;;;;;;;3.03;1.90;;;11.60;99.90;;;;;;5009158;28;20240;-80
2023/06/04 06:28:00;;;;;;;5.87;3.63;;;11.70;99.90;;;;;;5008156;28;20229;-80
2023/06/04 06:30:27;;;;;;;6.70;2.43;;;11.90;99.90;;;;;;5009672;28;20737;-81
2023/06/04 06:32:54;;;;;;;5.77;2.30;;;12.10;99.90;;;;;;5010205;28;20274;-79
2023/06/04 06:35:21;;;;;;;4.77;1.77;;;12.40;99.90;;;;;;5012612;28;20226;-79
2023/06/04 06:37:47;;;;;;;4.20;1.97;;;12.60;99.90;;;;;;5013238;28;20274;-85
2023/06/04 06:40:15;;;;;;;4.90;2.30;;;12.90;99.90;;;;;;5012920;28;20694;-80
2023/06/04 06:42:42;;;;;;;4.10;1.90;;;13.10;99.90;;;;;;5013548;28;20250;-80
2023/06/04 06:45:10;;;;;;;5.17;2.00;;;13.30;99.90;;;;;;5011907;28;20219;-81
2023/06/04 06:47:36;;;;;;;5.87;2.43;;;13.50;99.90;;;;;;5013890;28;20221;-79
2023/06/04 06:50:03;;;;;;;6.77;3.37;;;13.60;99.90;;;;;;5026842;28;20301;-80
2023/06/04 06:52:30;;;;;;;3.67;1.87;;;13.70;99.50;;;;;;5013609;28;20230;-80
2023/06/04 06:54:57;;;;;;;10.93;4.73;;;13.80;99.30;;;;;;5014752;28;20796;-81
2023/06/04 06:57:25;;;;;;;11.17;5.63;;;13.90;99.10;;;;;;5043938;28;20336;-79
2023/06/04 06:59:53;;;;;;;5.63;2.37;;;14.00;99.20;;;;;;5011880;28;20217;-81
2023/06/04 07:02:20;;;;;;;46.23;26.83;;;14.20;99.40;;;;;;5009628;28;20233;-80
2023/06/04 07:04:47;;;;;;;4.90;2.27;;;14.50;99.20;;;;;;5013231;28;20251;-82
2023/06/04 07:07:13;;;;;;;7.72;4.20;;;15.10;98.60;;;;;;5009289;28;20699;-80
2023/06/04 07:09:40;;;;;;;4.03;2.05;;;15.60;98.40;;;;;;5024349;28;20222;-80
2023/06/04 07:12:07;;;;;;;5.18;2.70;;;16.30;98.00;;;;;;5011382;28;20238;-83
2023/06/04 07:14:35;;;;;;;3.97;2.75;;;17.00;96.20;;;;;;5011278;28;20233;-80
2023/06/04 07:17:02;;;;;;;4.40;1.70;;;17.60;96.10;;;;;;5043741;28;20221;-80
2023/06/04 07:19:28;;;;;;;5.72;1.67;;;18.30;95.30;;;;;;5010558;28;20332;-81
2023/06/04 07:21:55;;;;;;;5.70;3.38;;;19.00;94.20;;;;;;5013980;28;20225;-81
2023/06/04 07:24:22;;;;;;;3.33;1.90;;;19.70;91.40;;;;;;5009900;28;20225;-81
2023/06/04 07:26:49;;;;;;;7.25;2.55;;;20.30;91.30;;;;;;5008259;28;20221;-81
2023/06/04 07:29:16;;;;;;;3.10;1.70;;;20.80;90.20;;;;;;5009784;28;20210;-81
2023/06/04 07:31:44;;;;;;;5.60;2.28;;;21.40;87.80;;;;;;5010724;28;20225;-81
2023/06/04 07:34:11;;;;;;;3.67;1.67;;;21.90;84.80;;;;;;5008475;28;20214;-80
2023/06/04 07:36:37;;;;;;;5.28;1.63;;;22.40;83.60;;;;;;5010921;28;20221;-80
2023/06/04 07:39:05;;;;;;;5.18;1.65;;;22.80;81.20;;;;;;5013398;28;20231;-82
2023/06/04 07:41:31;;;;;;;3.25;1.40;;;23.30;79.50;;;;;;5015427;28;20288;-80
2023/06/04 07:43:58;;;;;;;6.97;3.90;;;23.80;77.40;;;;;;5010964;28;20229;-80
2023/06/04 07:46:25;;;;;;;5.63;1.40;;;24.20;75.00;;;;;;5011475;28;20244;-80
2023/06/04 07:48:53;;;;;;;2.72;1.70;;;24.50;73.50;;;;;;5011315;28;20579;-80
2023/06/04 07:51:20;;;;;;;4.80;1.52;;;24.90;71.50;;;;;;5009621;28;20641;-80
2023/06/04 07:53:46;;;;;;;2.50;1.45;;;25.30;70.60;;;;;;5010580;28;20229;-80
2023/06/04 07:56:13;;;;;;;3.17;2.35;;;25.60;69.90;;;;;;5009962;28;20224;-83
2023/06/04 07:58:40;;;;;;;5.63;2.55;;;26.00;66.50;;;;;;5010421;28;20224;-81
2023/06/04 08:01:07;;;;;;;3.55;2.22;;;26.30;65.90;;;;;;5011518;28;20312;-81
2023/06/04 08:03:34;;;;;;;3.30;2.13;;;26.60;64.60;;;;;;5008148;28;20229;-84
2023/06/04 08:06:02;;;;;;;3.72;1.50;;;26.90;62.30;;;;;;5010522;28;20585;-81
2023/06/04 08:08:29;;;;;;;3.08;1.55;;;27.10;59.90;;;;;;5009512;28;20601;-80
2023/06/04 08:10:55;;;;;;;4.63;2.28;;;27.20;59.90;;;;;;5010638;28;20221;-81
2023/06/04 08:13:22;;;;;;;4.88;2.83;;;27.20;59.60;;;;;;5009901;28;20232;-82
2023/06/04 08:15:49;;;;;;;5.32;2.00;;;27.20;59.00;;;;;;5011071;28;20221;-80
2023/06/04 08:18:15;;;;;;;3.03;1.42;;;27.20;58.20;;;;;;5007561;28;20241;-83
2023/06/04 08:20:42;;;;;;;4.10;2.60;;;27.30;57.80;;;;;;5010885;28;20229;-82
2023/06/04 08:23:10;;;;;;;3.03;1.25;;;27.40;56.90;;;;;;5010780;28;20221;-80
2023/06/04 08:25:37;;;;;;;4.85;1.55;;;27.50;54.70;;;;;;5010418;28;20220;-81
2023/06/04 08:28:03;;;;;;;2.20;1.48;;;27.50;56.00;;;;;;5010007;28;20761;-80
2023/06/04 08:30:30;;;;;;;21.13;12.02;;;27.50;55.50;;;;;;5009352;28;20225;-80
2023/06/04 08:32:57;;;;;;;2.95;1.60;;;27.60;56.00;;;;;;5009058;28;20244;-83
2023/06/04 08:35:23;;;;;;;3.53;1.45;;;27.80;56.00;;;;;;5010099;28;20231;-80
2023/06/04 08:37:50;;;;;;;2.80;1.45;;;28.10;55.30;;;;;;5010122;28;20226;-81
2023/06/04 08:40:18;;;;;;;2.65;1.23;;;28.40;55.60;;;;;;5009105;28;20225;-88
2023/06/04 08:42:45;;;;;;;4.15;2.25;;;28.80;53.80;;;;;;5006166;28;20231;-80
2023/06/04 08:45:13;;;;;;;2.83;1.45;;;29.10;52.20;;;;;;5009751;28;20245;-80
2023/06/04 08:47:45;;;;;;;4.55;2.60;;;29.40;52.00;;;;;;5040620;28;20279;-80
2023/06/04 08:50:12;;;;;;;2.55;1.48;;;29.80;51.20;;;;;;5010302;28;20244;-84
2023/06/04 08:52:40;;;;;;;3.08;1.60;;;30.10;50.30;;;;;;5009488;28;20225;-81
2023/06/04 08:55:09;;;;;;;3.65;1.00;;;30.30;50.00;;;;;;5009706;28;20225;-81
2023/06/04 08:57:38;;;;;;;8.93;5.13;;;30.50;48.30;;;;;;5006689;28;20225;-82
2023/06/04 09:00:07;;;;;;;2.50;1.45;;;30.70;48.80;;;;;;5009834;28;20221;-81
2023/06/04 09:02:36;;;;;;;2.47;1.15;;;30.90;47.70;;;;;;5010371;28;20341;-85
2023/06/04 09:05:04;;;;;;;1.55;1.10;;;30.90;46.50;;;;;;5008025;28;20280;-81
2023/06/04 09:07:32;;;;;;;1.90;1.27;;;30.90;45.70;;;;;;5010016;28;20248;-80
2023/06/04 09:10:00;;;;;;;2.10;1.00;;;31.00;45.20;;;;;;5009751;28;20220;-82
2023/06/04 09:12:28;;;;;;;3.67;2.10;;;31.00;45.00;;;;;;5008952;28;20651;-82
2023/06/04 09:14:56;;;;;;;2.17;1.20;;;31.00;44.80;;;;;;5007685;28;20232;-82
2023/06/04 09:17:23;;;;;;;3.63;1.65;;;31.10;44.20;;;;;;5020220;28;20225;-83
2023/06/04 09:19:51;;;;;;;3.92;2.10;;;31.10;43.90;;;;;;5010002;28;20264;-82
2023/06/04 09:22:18;;;;;;;2.67;1.30;;;31.10;43.80;;;;;;5008851;28;20221;-81
2023/06/04 09:24:47;;;;;;;2.53;1.40;;;31.20;43.40;;;;;;5009656;28;20691;-84
2023/06/04 09:27:15;;;;;;;3.97;1.60;;;31.20;43.00;;;;;;5009190;28;20237;-81
2023/06/04 09:29:50;;;;;;;2.03;1.40;;;31.30;42.80;;;;;;5010026;28;20308;-80
2023/06/04 09:32:23;;;;;;;3.60;1.52;;;31.40;42.40;;;;;;5009335;28;20221;-81
2023/06/04 09:34:49;;;;;;;2.63;1.40;;;31.50;41.50;;;;;;5062719;22;20219;-79
2023/06/04 09:37:17;;;;;;;3.03;1.40;;;31.60;41.80;;;;;;5067594;28;20227;-79
2023/06/04 09:39:44;;;;;;;1.88;1.33;;;31.70;42.10;;;;;;5062859;28;20231;-80
2023/06/04 09:42:11;;;;;;;2.13;1.05;;;31.80;42.30;;;;;;5066715;28;20219;-80
2023/06/04 09:44:45;;;;;;;1.70;1.13;;;31.90;41.40;;;;;;5072972;28;20395;-80
2023/06/04 09:47:12;;;;;;;1.95;1.15;;;32.00;40.80;;;;;;5066843;28;20246;-79
2023/06/04 09:49:43;;;;;;;2.30;1.25;;;32.10;40.20;;;;;;5069809;28;20228;-80
2023/06/04 09:52:09;;;;;;;4.22;1.10;;;32.20;39.40;;;;;;5069412;28;20223;-79
2023/06/04 09:54:37;;;;;;;1.80;1.20;;;32.20;40.00;;;;;;5066199;28;20574;-80
2023/06/04 09:57:05;;;;;;;2.75;1.38;;;32.20;38.50;;;;;;5063064;28;20222;-80
2023/06/04 09:59:39;;;;;;;3.28;1.33;;;32.20;38.30;;;;;;5065886;28;20230;-79
2023/06/04 10:02:07;;;;;;;2.38;1.13;;;32.10;38.60;;;;;;5066626;28;20305;-80
2023/06/04 10:04:36;;;;;;;1.40;0.98;;;32.00;38.50;;;;;;5064698;28;20712;-79
2023/06/04 10:07:05;;;;;;;1.85;1.08;;;31.80;38.90;;;;;;5061978;28;20220;-79
2023/06/04 10:09:35;;;;;;;2.60;1.55;;;31.80;38.70;;;;;;5065224;28;20223;-80
2023/06/04 10:12:02;;;;;;;1.88;1.40;;;31.70;38.50;;;;;;5060093;28;20211;-80
2023/06/04 10:14:35;;;;;;;3.40;1.70;;;31.80;38.70;;;;;;5061402;28;20224;-79
2023/06/04 10:17:03;;;;;;;3.35;1.05;;;31.80;38.00;;;;;;5058648;28;20223;-79
2023/06/04 10:19:30;;;;;;;3.60;1.27;;;31.70;38.00;;;;;;5060880;28;20228;-79
2023/06/04 10:21:57;;;;;;;2.90;1.35;;;31.70;37.60;;;;;;5066428;28;20227;-79
2023/06/04 10:24:26;;;;;;;3.50;1.45;;;31.70;37.00;;;;;;5063279;28;20236;-80
2023/06/04 10:26:55;;;;;;;1.80;1.00;;;31.70;36.90;;;;;;5065760;28;20307;-79
2023/06/04 10:29:22;;;;;;;3.97;1.20;;;31.70;37.00;;;;;;5066460;28;20330;-79
2023/06/04 10:31:49;;;;;;;1.92;1.20;;;31.70;36.90;;;;;;5062507;28;20227;-79
2023/06/04 10:34:16;;;;;;;2.25;1.27;;;31.70;36.60;;;;;;5061135;28;20220;-80
2023/06/04 10:36:44;;;;;;;2.03;1.00;;;31.80;36.70;;;;;;5059628;28;20274;-79
2023/06/04 10:39:11;;;;;;;1.77;1.33;;;31.90;36.20;;;;;;5063761;28;20216;-79
2023/06/04 10:41:41;;;;;;;3.38;1.48;;;31.90;36.20;;;;;;5044570;28;20234;-80
2023/06/04 10:44:08;;;;;;;3.92;1.30;;;31.90;36.10;;;;;;5058045;28;20310;-80
2023/06/04 10:46:40;;;;;;;2.35;1.30;;;31.90;36.40;;;;;;5062407;28;20233;-79
2023/06/04 10:49:06;;;;;;;3.72;1.10;;;31.90;35.70;;;;;;5061708;28;20269;-80
2023/06/04 10:51:34;;;;;;;5.03;1.13;;;31.90;35.70;;;;;;5053412;28;20224;-80
2023/06/04 10:54:02;;;;;;;2.10;1.42;;;32.00;35.90;;;;;;5063974;28;20227;-80
2023/06/04 10:56:31;;;;;;;1.63;1.00;;;32.10;35.80;;;;;;5058539;28;20234;-80
2023/06/04 10:59:00;;;;;;;1.70;1.10;;;32.20;35.60;;;;;;5058767;28;20243;-80
2023/06/04 11:01:28;;;;;;;2.63;1.08;;;32.20;35.30;;;;;;5054610;28;20231;-80
2023/06/04 11:03:55;;;;;;;4.80;1.20;;;32.30;35.30;;;;;;5062441;28;20223;-79
2023/06/04 11:06:27;;;;;;;1.27;1.10;;;32.40;35.40;;;;;;5063349;28;20681;-80
2023/06/04 11:09:03;;;;;;;3.03;1.20;;;32.50;35.00;;;;;;5056135;28;20277;-80
2023/06/04 11:11:30;;;;;;;2.28;0.90;;;32.60;34.50;;;;;;5066762;28;20230;-80
2023/06/04 11:14:07;;;;;;;4.40;1.40;;;32.70;34.60;;;;;;5071711;28;20253;-80
2023/06/04 11:16:35;;;;;;;2.45;1.10;;;32.70;34.80;;;;;;5055817;28;20288;-80
2023/06/04 11:19:02;;;;;;;2.17;1.23;;;32.70;34.90;;;;;;5064531;28;20227;-80
2023/06/04 11:21:29;;;;;;;1.70;1.20;;;32.90;35.20;;;;;;5067338;28;20219;-80
2023/06/04 11:23:58;;;;;;;3.17;1.30;;;32.90;34.60;;;;;;5071243;28;20269;-80
2023/06/04 11:26:31;;;;;;;2.05;1.20;;;32.90;34.20;;;;;;5069759;28;20315;-79
2023/06/04 11:28:57;;;;;;;4.32;1.40;;;32.90;33.90;;;;;;5048933;28;20232;-79
2023/06/04 11:31:24;;;;;;;2.20;1.20;;;32.80;34.20;;;;;;5066966;28;20711;-80
2023/06/04 11:33:52;;;;;;;1.95;1.13;;;32.60;33.70;;;;;;5066742;28;20277;-79
2023/06/04 11:36:26;;;;;;;3.45;1.40;;;32.50;34.00;;;;;;5068285;28;20318;-80
2023/06/04 11:38:57;;;;;;;1.73;1.08;;;32.30;33.70;;;;;;5063438;28;20227;-80
2023/06/04 11:41:25;;;;;;;1.55;1.40;;;32.20;33.80;;;;;;5068194;28;20231;-80
2023/06/04 11:43:52;;;;;;;1.85;1.30;;;32.00;33.60;;;;;;5062137;28;20211;-80
2023/06/04 11:46:20;;;;;;;2.58;1.30;;;31.80;34.00;;;;;;5062631;28;20242;-80
2023/06/04 11:48:47;;;;;;;1.52;1.13;;;31.70;34.00;;;;;;5065619;28;20257;-79
2023/06/04 11:51:15;;;;;;;2.78;1.38;;;31.60;34.40;;;;;;5064487;28;20222;-79
2023/06/04 11:53:41;;;;;;;2.88;1.20;;;31.60;33.70;;;;;;5063474;28;20733;-80
2023/06/04 11:56:08;;;;;;;3.28;1.30;;;31.50;34.60;;;;;;5054390;28;20231;-80
2023/06/04 11:58:35;;;;;;;2.30;1.30;;;31.50;34.60;;;;;;5058786;28;20227;-80
2023/06/04 12:01:02;;;;;;;1.58;1.27;;;31.50;34.80;;;;;;5069583;28;20216;-80
2023/06/04 12:03:37;;;;;;;1.45;1.30;;;31.60;34.80;;;;;;5063220;28;20555;-80
2023/06/04 12:06:16;;;;;;;1.75;1.35;;;31.70;34.50;;;;;;5065738;28;20217;-80
2023/06/04 12:08:48;;;;;;;2.47;1.60;;;31.70;34.30;;;;;;5069406;28;20287;-79
2023/06/04 12:11:27;;;;;;;2.58;1.40;;;31.70;33.80;;;;;;5060505;28;20216;-80
2023/06/04 12:13:54;;;;;;;2.97;1.70;;;31.60;33.90;;;;;;5061480;28;20230;-79
2023/06/04 12:16:21;;;;;;;2.55;1.40;;;31.50;34.00;;;;;;5043024;28;20228;-80
2023/06/04 12:18:49;;;;;;;1.77;1.45;;;31.40;34.50;;;;;;5064273;28;20859;-80
2023/06/04 12:21:26;;;;;;;2.65;1.42;;;31.40;34.90;;;;;;5069953;28;20242;-79
2023/06/04 12:23:54;;;;;;;2.25;1.40;;;31.40;34.50;;;;;;5068893;28;20322;-80
2023/06/04 12:26:28;;;;;;;1.95;1.40;;;31.40;34.50;;;;;;5068521;28;20576;-79
2023/06/04 12:29:02;;;;;;;2.15;1.27;;;31.50;34.20;;;;;;5056686;28;20219;-80
2023/06/04 12:31:31;;;;;;;5.78;1.70;;;31.40;34.00;;;;;;5064097;28;21287;-80
2023/06/04 12:33:59;;;;;;;2.03;1.38;;;31.40;34.50;;;;;;5050979;28;20274;-80
2023/06/04 12:36:28;;;;;;;3.10;1.42;;;31.40;34.20;;;;;;5064794;28;20251;-80
2023/06/04 12:38:59;;;;;;;2.28;1.35;;;31.30;33.90;;;;;;5071670;28;20223;-80
2023/06/04 12:41:26;;;;;;;2.50;1.30;;;31.20;33.70;;;;;;5066538;28;20224;-79
2023/06/04 12:43:53;;;;;;;2.92;1.35;;;31.10;34.20;;;;;;5058716;28;20231;-79
2023/06/04 12:46:20;;;;;;;1.88;1.17;;;30.80;34.30;;;;;;5051175;28;20310;-80
2023/06/04 12:48:46;;;;;;;1.60;1.38;;;30.60;34.60;;;;;;5065111;28;20216;-80
2023/06/04 12:51:13;;;;;;;2.03;1.30;;;30.60;35.00;;;;;;5063443;28;20216;-79
2023/06/04 12:53:41;;;;;;;2.58;1.67;;;30.40;34.80;;;;;;5064319;28;20238;-80
2023/06/04 12:56:08;;;;;;;2.03;1.40;;;30.30;34.60;;;;;;5064519;28;20998;-80